sensor_id;sensor_type;location;lat;lon;timestamp;P1;durP1;ratioP1;P2;durP2;ratioP2
57663;SDS011;43493;53.098;6.064;2023-02-22T00:00:14;44.93;;;24.67;;
57663;SDS011;43493;53.098;6.064;2023-02-22T00:02:46;41.80;;;23.23;;
57663;SDS011;43493;53.098;6.064;2023-02-22T00:05:16;47.00;;;25.03;;
57663;SDS011;43493;53.098;6.064;2023-02-22T00:07:47;41.77;;;22.33;;
57663;SDS011;43493;53.098;6.064;2023-02-22T00:10:16;41.27;;;23.17;;
57663;SDS011;43493;53.098;6.064;2023-02-22T00:12:45;47.73;;;24.20;;
57663;SDS011;43493;53.098;6.064;2023-02-22T00:15:16;45.63;;;23.93;;
57663;SDS011;43493;53.098;6.064;2023-02-22T00:17:44;43.07;;;22.43;;
57663;SDS011;43493;53.098;6.064;2023-02-22T00:20:10;41.63;;;23.57;;
57663;SDS011;43493;53.098;6.064;2023-02-22T00:22:39;42.07;;;22.33;;
57663;SDS011;43493;53.098;6.064;2023-02-22T00:25:10;43.03;;;23.17;;
57663;SDS011;43493;53.098;6.064;2023-02-22T00:27:38;48.83;;;23.23;;
57663;SDS011;43493;53.098;6.064;2023-02-22T00:30:04;46.97;;;23.20;;
57663;SDS011;43493;53.098;6.064;2023-02-22T00:32:31;41.90;;;23.00;;
57663;SDS011;43493;53.098;6.064;2023-02-22T00:34:56;39.53;;;22.37;;
57663;SDS011;43493;53.098;6.064;2023-02-22T00:37:22;45.97;;;23.83;;
57663;SDS011;43493;53.098;6.064;2023-02-22T00:39:49;39.87;;;22.57;;
57663;SDS011;43493;53.098;6.064;2023-02-22T00:42:16;45.73;;;24.00;;
57663;SDS011;43493;53.098;6.064;2023-02-22T00:44:42;40.77;;;23.20;;
57663;SDS011;43493;53.098;6.064;2023-02-22T00:47:09;40.90;;;23.33;;
57663;SDS011;43493;53.098;6.064;2023-02-22T00:49:35;40.83;;;22.77;;
57663;SDS011;43493;53.098;6.064;2023-02-22T00:52:01;43.70;;;24.20;;
57663;SDS011;43493;53.098;6.064;2023-02-22T00:54:28;42.93;;;23.50;;
57663;SDS011;43493;53.098;6.064;2023-02-22T00:56:55;38.13;;;21.30;;
57663;SDS011;43493;53.098;6.064;2023-02-22T00:59:22;39.20;;;21.30;;
57663;SDS011;43493;53.098;6.064;2023-02-22T01:01:48;46.57;;;24.23;;
57663;SDS011;43493;53.098;6.064;2023-02-22T01:04:14;50.37;;;23.87;;
57663;SDS011;43493;53.098;6.064;2023-02-22T01:06:40;43.90;;;23.00;;
57663;SDS011;43493;53.098;6.064;2023-02-22T01:09:06;48.87;;;24.17;;
57663;SDS011;43493;53.098;6.064;2023-02-22T01:11:32;45.03;;;23.20;;
57663;SDS011;43493;53.098;6.064;2023-02-22T01:13:58;42.50;;;22.70;;
57663;SDS011;43493;53.098;6.064;2023-02-22T01:16:24;41.57;;;21.83;;
57663;SDS011;43493;53.098;6.064;2023-02-22T01:18:50;47.47;;;23.80;;
57663;SDS011;43493;53.098;6.064;2023-02-22T01:21:16;45.03;;;23.43;;
57663;SDS011;43493;53.098;6.064;2023-02-22T01:23:45;46.10;;;23.37;;
57663;SDS011;43493;53.098;6.064;2023-02-22T01:26:11;45.10;;;24.53;;
57663;SDS011;43493;53.098;6.064;2023-02-22T01:28:37;48.97;;;24.43;;
57663;SDS011;43493;53.098;6.064;2023-02-22T01:31:03;47.33;;;23.23;;
57663;SDS011;43493;53.098;6.064;2023-02-22T01:33:29;47.53;;;22.90;;
57663;SDS011;43493;53.098;6.064;2023-02-22T01:35:55;49.37;;;22.63;;
57663;SDS011;43493;53.098;6.064;2023-02-22T01:38:21;44.27;;;22.00;;
57663;SDS011;43493;53.098;6.064;2023-02-22T01:40:48;46.37;;;23.23;;
57663;SDS011;43493;53.098;6.064;2023-02-22T01:43:18;52.40;;;25.53;;
57663;SDS011;43493;53.098;6.064;2023-02-22T01:51:30;48.83;;;23.77;;
57663;SDS011;43493;53.098;6.064;2023-02-22T01:54:05;49.10;;;23.57;;
57663;SDS011;43493;53.098;6.064;2023-02-22T01:56:38;55.20;;;24.53;;
57663;SDS011;43493;53.098;6.064;2023-02-22T01:59:10;51.83;;;25.97;;
57663;SDS011;43493;53.098;6.064;2023-02-22T02:01:38;46.30;;;23.03;;
57663;SDS011;43493;53.098;6.064;2023-02-22T02:04:09;47.00;;;24.43;;
57663;SDS011;43493;53.098;6.064;2023-02-22T02:06:36;43.07;;;21.77;;
57663;SDS011;43493;53.098;6.064;2023-02-22T02:09:08;51.57;;;24.70;;
57663;SDS011;43493;53.098;6.064;2023-02-22T02:11:40;50.67;;;23.70;;
57663;SDS011;43493;53.098;6.064;2023-02-22T02:14:07;43.80;;;22.90;;
57663;SDS011;43493;53.098;6.064;2023-02-22T02:16:39;44.13;;;22.30;;
57663;SDS011;43493;53.098;6.064;2023-02-22T02:19:32;43.27;;;21.90;;
57663;SDS011;43493;53.098;6.064;2023-02-22T02:22:20;45.57;;;22.13;;
57663;SDS011;43493;53.098;6.064;2023-02-22T02:30:42;47.20;;;22.90;;
57663;SDS011;43493;53.098;6.064;2023-02-22T02:33:42;44.20;;;22.47;;
57663;SDS011;43493;53.098;6.064;2023-02-22T02:39:07;44.77;;;21.57;;
57663;SDS011;43493;53.098;6.064;2023-02-22T02:41:52;45.93;;;21.93;;
57663;SDS011;43493;53.098;6.064;2023-02-22T02:46:50;45.93;;;21.57;;
57663;SDS011;43493;53.098;6.064;2023-02-22T02:49:25;46.57;;;22.20;;
57663;SDS011;43493;53.098;6.064;2023-02-22T02:51:55;48.87;;;22.47;;
57663;SDS011;43493;53.098;6.064;2023-02-22T02:54:23;45.37;;;21.37;;
57663;SDS011;43493;53.098;6.064;2023-02-22T02:56:50;46.20;;;21.73;;
57663;SDS011;43493;53.098;6.064;2023-02-22T02:59:23;48.87;;;23.97;;
57663;SDS011;43493;53.098;6.064;2023-02-22T03:05:14;50.65;;;23.58;;
57663;SDS011;43493;53.098;6.064;2023-02-22T03:23:47;43.87;;;20.00;;
57663;SDS011;43493;53.098;6.064;2023-02-22T03:29:28;40.23;;;19.67;;
57663;SDS011;43493;53.098;6.064;2023-02-22T03:31:59;36.03;;;17.73;;
57663;SDS011;43493;53.098;6.064;2023-02-22T03:34:37;38.87;;;19.67;;
57663;SDS011;43493;53.098;6.064;2023-02-22T03:37:13;42.63;;;19.47;;
57663;SDS011;43493;53.098;6.064;2023-02-22T03:39:43;37.60;;;19.30;;
57663;SDS011;43493;53.098;6.064;2023-02-22T03:42:13;36.90;;;19.00;;
57663;SDS011;43493;53.098;6.064;2023-02-22T03:44:45;35.13;;;18.43;;
57663;SDS011;43493;53.098;6.064;2023-02-22T03:47:15;32.63;;;16.80;;
57663;SDS011;43493;53.098;6.064;2023-02-22T03:50:31;35.57;;;18.17;;
57663;SDS011;43493;53.098;6.064;2023-02-22T03:52:41;34.23;;;17.43;;
57663;SDS011;43493;53.098;6.064;2023-02-22T03:55:09;31.57;;;17.63;;
57663;SDS011;43493;53.098;6.064;2023-02-22T03:57:37;34.37;;;18.17;;
57663;SDS011;43493;53.098;6.064;2023-02-22T04:00:08;31.63;;;17.53;;
57663;SDS011;43493;53.098;6.064;2023-02-22T04:02:39;35.23;;;18.77;;
57663;SDS011;43493;53.098;6.064;2023-02-22T04:05:05;37.57;;;18.67;;
57663;SDS011;43493;53.098;6.064;2023-02-22T04:07:31;31.40;;;16.00;;
57663;SDS011;43493;53.098;6.064;2023-02-22T04:09:57;28.30;;;16.03;;
57663;SDS011;43493;53.098;6.064;2023-02-22T04:12:23;34.50;;;18.50;;
57663;SDS011;43493;53.098;6.064;2023-02-22T04:14:48;29.43;;;16.93;;
57663;SDS011;43493;53.098;6.064;2023-02-22T04:17:14;29.57;;;17.10;;
57663;SDS011;43493;53.098;6.064;2023-02-22T04:19:40;30.80;;;17.17;;
57663;SDS011;43493;53.098;6.064;2023-02-22T04:22:05;28.10;;;16.97;;
57663;SDS011;43493;53.098;6.064;2023-02-22T04:24:31;30.00;;;17.63;;
57663;SDS011;43493;53.098;6.064;2023-02-22T04:26:57;27.80;;;15.97;;
57663;SDS011;43493;53.098;6.064;2023-02-22T04:29:22;28.80;;;17.10;;
57663;SDS011;43493;53.098;6.064;2023-02-22T04:31:48;30.20;;;16.70;;
57663;SDS011;43493;53.098;6.064;2023-02-22T04:34:14;26.03;;;16.13;;
57663;SDS011;43493;53.098;6.064;2023-02-22T04:36:40;27.60;;;17.13;;
57663;SDS011;43493;53.098;6.064;2023-02-22T04:39:08;27.67;;;16.80;;
57663;SDS011;43493;53.098;6.064;2023-02-22T04:41:34;31.57;;;19.63;;
57663;SDS011;43493;53.098;6.064;2023-02-22T04:44:00;30.40;;;20.47;;
57663;SDS011;43493;53.098;6.064;2023-02-22T04:46:26;30.40;;;18.67;;
57663;SDS011;43493;53.098;6.064;2023-02-22T04:48:52;32.23;;;20.13;;
57663;SDS011;43493;53.098;6.064;2023-02-22T04:51:18;36.63;;;21.17;;
57663;SDS011;43493;53.098;6.064;2023-02-22T04:53:44;31.30;;;19.13;;
57663;SDS011;43493;53.098;6.064;2023-02-22T04:56:10;31.80;;;20.07;;
57663;SDS011;43493;53.098;6.064;2023-02-22T04:58:36;33.73;;;20.80;;
57663;SDS011;43493;53.098;6.064;2023-02-22T05:01:02;34.70;;;23.00;;
57663;SDS011;43493;53.098;6.064;2023-02-22T05:03:27;36.73;;;23.47;;
57663;SDS011;43493;53.098;6.064;2023-02-22T05:05:53;38.43;;;23.87;;
57663;SDS011;43493;53.098;6.064;2023-02-22T05:08:19;38.93;;;25.37;;
57663;SDS011;43493;53.098;6.064;2023-02-22T05:10:45;44.77;;;26.70;;
57663;SDS011;43493;53.098;6.064;2023-02-22T05:13:10;37.87;;;25.50;;
57663;SDS011;43493;53.098;6.064;2023-02-22T05:15:36;41.23;;;26.17;;
57663;SDS011;43493;53.098;6.064;2023-02-22T05:18:02;40.77;;;24.73;;
57663;SDS011;43493;53.098;6.064;2023-02-22T05:20:29;42.17;;;27.20;;
57663;SDS011;43493;53.098;6.064;2023-02-22T05:22:57;41.73;;;26.63;;
57663;SDS011;43493;53.098;6.064;2023-02-22T05:25:24;42.13;;;26.43;;
57663;SDS011;43493;53.098;6.064;2023-02-22T05:27:52;40.53;;;25.70;;
57663;SDS011;43493;53.098;6.064;2023-02-22T05:30:20;45.23;;;29.07;;
57663;SDS011;43493;53.098;6.064;2023-02-22T05:32:48;44.07;;;27.60;;
57663;SDS011;43493;53.098;6.064;2023-02-22T05:35:15;47.07;;;29.43;;
57663;SDS011;43493;53.098;6.064;2023-02-22T05:37:42;47.37;;;30.50;;
57663;SDS011;43493;53.098;6.064;2023-02-22T05:40:07;49.10;;;31.70;;
57663;SDS011;43493;53.098;6.064;2023-02-22T05:42:33;51.10;;;31.40;;
57663;SDS011;43493;53.098;6.064;2023-02-22T05:44:59;52.77;;;34.03;;
57663;SDS011;43493;53.098;6.064;2023-02-22T05:47:25;55.03;;;34.50;;
57663;SDS011;43493;53.098;6.064;2023-02-22T05:49:51;55.23;;;34.77;;
57663;SDS011;43493;53.098;6.064;2023-02-22T05:52:17;56.93;;;35.20;;
57663;SDS011;43493;53.098;6.064;2023-02-22T05:54:43;60.63;;;35.97;;
57663;SDS011;43493;53.098;6.064;2023-02-22T05:57:08;62.60;;;40.27;;
57663;SDS011;43493;53.098;6.064;2023-02-22T05:59:34;63.10;;;39.30;;
57663;SDS011;43493;53.098;6.064;2023-02-22T06:02:00;65.47;;;39.40;;
57663;SDS011;43493;53.098;6.064;2023-02-22T06:04:25;61.40;;;37.47;;
57663;SDS011;43493;53.098;6.064;2023-02-22T06:06:52;69.13;;;40.23;;
57663;SDS011;43493;53.098;6.064;2023-02-22T06:09:17;69.23;;;41.53;;
57663;SDS011;43493;53.098;6.064;2023-02-22T06:11:43;63.13;;;38.50;;
57663;SDS011;43493;53.098;6.064;2023-02-22T06:14:09;71.03;;;43.77;;
57663;SDS011;43493;53.098;6.064;2023-02-22T06:16:35;68.43;;;40.77;;
57663;SDS011;43493;53.098;6.064;2023-02-22T06:19:00;72.37;;;41.33;;
57663;SDS011;43493;53.098;6.064;2023-02-22T06:21:26;66.97;;;41.30;;
57663;SDS011;43493;53.098;6.064;2023-02-22T06:23:52;72.83;;;41.93;;
57663;SDS011;43493;53.098;6.064;2023-02-22T06:26:18;68.40;;;42.13;;
57663;SDS011;43493;53.098;6.064;2023-02-22T06:28:47;70.53;;;43.43;;
57663;SDS011;43493;53.098;6.064;2023-02-22T06:31:13;74.40;;;44.60;;
57663;SDS011;43493;53.098;6.064;2023-02-22T06:33:39;72.37;;;45.40;;
57663;SDS011;43493;53.098;6.064;2023-02-22T06:36:05;76.13;;;44.97;;
57663;SDS011;43493;53.098;6.064;2023-02-22T06:38:31;73.33;;;44.67;;
57663;SDS011;43493;53.098;6.064;2023-02-22T06:40:57;75.60;;;45.47;;
57663;SDS011;43493;53.098;6.064;2023-02-22T06:43:23;72.43;;;43.43;;
57663;SDS011;43493;53.098;6.064;2023-02-22T06:45:50;72.67;;;43.90;;
57663;SDS011;43493;53.098;6.064;2023-02-22T06:48:16;76.77;;;46.20;;
57663;SDS011;43493;53.098;6.064;2023-02-22T06:50:42;76.97;;;46.13;;
57663;SDS011;43493;53.098;6.064;2023-02-22T06:53:07;77.50;;;44.27;;
57663;SDS011;43493;53.098;6.064;2023-02-22T06:55:33;80.57;;;47.17;;
57663;SDS011;43493;53.098;6.064;2023-02-22T06:58:00;72.83;;;42.77;;
57663;SDS011;43493;53.098;6.064;2023-02-22T07:00:28;83.10;;;49.30;;
57663;SDS011;43493;53.098;6.064;2023-02-22T07:02:55;77.43;;;49.13;;
57663;SDS011;43493;53.098;6.064;2023-02-22T07:05:22;76.07;;;47.27;;
57663;SDS011;43493;53.098;6.064;2023-02-22T07:07:49;81.80;;;50.10;;
57663;SDS011;43493;53.098;6.064;2023-02-22T07:10:26;85.33;;;49.97;;
57663;SDS011;43493;53.098;6.064;2023-02-22T07:12:53;82.80;;;48.45;;
57663;SDS011;43493;53.098;6.064;2023-02-22T07:15:20;82.63;;;49.40;;
57663;SDS011;43493;53.098;6.064;2023-02-22T07:17:48;90.67;;;52.20;;
57663;SDS011;43493;53.098;6.064;2023-02-22T07:20:14;88.73;;;48.17;;
57663;SDS011;43493;53.098;6.064;2023-02-22T07:22:40;90.17;;;51.10;;
57663;SDS011;43493;53.098;6.064;2023-02-22T07:25:06;86.60;;;50.37;;
57663;SDS011;43493;53.098;6.064;2023-02-22T07:27:37;90.50;;;50.30;;
57663;SDS011;43493;53.098;6.064;2023-02-22T07:30:07;83.83;;;48.37;;
57663;SDS011;43493;53.098;6.064;2023-02-22T07:32:42;85.67;;;49.17;;
57663;SDS011;43493;53.098;6.064;2023-02-22T07:35:18;97.23;;;52.97;;
57663;SDS011;43493;53.098;6.064;2023-02-22T07:37:49;93.03;;;52.10;;
57663;SDS011;43493;53.098;6.064;2023-02-22T07:40:15;94.03;;;49.37;;
57663;SDS011;43493;53.098;6.064;2023-02-22T07:42:51;91.70;;;51.77;;
57663;SDS011;43493;53.098;6.064;2023-02-22T07:45:17;94.05;;;52.60;;
57663;SDS011;43493;53.098;6.064;2023-02-22T07:47:45;98.10;;;53.33;;
57663;SDS011;43493;53.098;6.064;2023-02-22T07:50:12;101.40;;;55.50;;
57663;SDS011;43493;53.098;6.064;2023-02-22T07:52:39;96.20;;;52.83;;
57663;SDS011;43493;53.098;6.064;2023-02-22T07:55:05;96.83;;;54.37;;
57663;SDS011;43493;53.098;6.064;2023-02-22T07:57:31;100.57;;;52.23;;
57663;SDS011;43493;53.098;6.064;2023-02-22T07:59:57;101.97;;;54.67;;
57663;SDS011;43493;53.098;6.064;2023-02-22T08:02:24;99.83;;;56.53;;
57663;SDS011;43493;53.098;6.064;2023-02-22T08:04:50;107.87;;;55.33;;
57663;SDS011;43493;53.098;6.064;2023-02-22T08:07:15;99.60;;;54.47;;
57663;SDS011;43493;53.098;6.064;2023-02-22T08:09:41;104.77;;;56.17;;
57663;SDS011;43493;53.098;6.064;2023-02-22T08:12:07;103.37;;;56.13;;
57663;SDS011;43493;53.098;6.064;2023-02-22T08:14:33;101.97;;;56.87;;
57663;SDS011;43493;53.098;6.064;2023-02-22T08:16:58;105.63;;;56.90;;
57663;SDS011;43493;53.098;6.064;2023-02-22T08:19:24;98.10;;;53.90;;
57663;SDS011;43493;53.098;6.064;2023-02-22T08:21:50;102.57;;;56.10;;
57663;SDS011;43493;53.098;6.064;2023-02-22T08:24:15;100.93;;;56.77;;
57663;SDS011;43493;53.098;6.064;2023-02-22T08:26:44;111.87;;;58.30;;
57663;SDS011;43493;53.098;6.064;2023-02-22T08:29:10;114.33;;;59.63;;
57663;SDS011;43493;53.098;6.064;2023-02-22T08:31:38;106.50;;;58.30;;
57663;SDS011;43493;53.098;6.064;2023-02-22T08:34:04;107.50;;;56.57;;
57663;SDS011;43493;53.098;6.064;2023-02-22T08:36:30;111.37;;;58.77;;
57663;SDS011;43493;53.098;6.064;2023-02-22T08:38:58;111.80;;;62.07;;
57663;SDS011;43493;53.098;6.064;2023-02-22T08:41:24;109.37;;;59.20;;
57663;SDS011;43493;53.098;6.064;2023-02-22T08:43:50;103.93;;;58.43;;
57663;SDS011;43493;53.098;6.064;2023-02-22T08:46:16;105.50;;;58.13;;
57663;SDS011;43493;53.098;6.064;2023-02-22T08:48:51;107.07;;;58.07;;
57663;SDS011;43493;53.098;6.064;2023-02-22T08:51:17;105.03;;;57.72;;
57663;SDS011;43493;53.098;6.064;2023-02-22T08:53:43;108.40;;;58.87;;
57663;SDS011;43493;53.098;6.064;2023-02-22T08:56:09;106.83;;;57.90;;
57663;SDS011;43493;53.098;6.064;2023-02-22T08:58:35;101.57;;;56.83;;
57663;SDS011;43493;53.098;6.064;2023-02-22T09:01:02;106.07;;;55.63;;
57663;SDS011;43493;53.098;6.064;2023-02-22T09:03:27;108.83;;;58.77;;
57663;SDS011;43493;53.098;6.064;2023-02-22T09:05:54;106.30;;;58.17;;
57663;SDS011;43493;53.098;6.064;2023-02-22T09:08:20;103.00;;;55.70;;
57663;SDS011;43493;53.098;6.064;2023-02-22T09:10:46;99.30;;;55.40;;
57663;SDS011;43493;53.098;6.064;2023-02-22T09:13:14;110.60;;;58.07;;
57663;SDS011;43493;53.098;6.064;2023-02-22T09:15:39;101.17;;;55.60;;
57663;SDS011;43493;53.098;6.064;2023-02-22T09:18:07;110.57;;;56.90;;
57663;SDS011;43493;53.098;6.064;2023-02-22T09:20:34;108.23;;;57.77;;
57663;SDS011;43493;53.098;6.064;2023-02-22T09:23:01;111.27;;;58.30;;
57663;SDS011;43493;53.098;6.064;2023-02-22T09:25:28;107.97;;;58.47;;
57663;SDS011;43493;53.098;6.064;2023-02-22T09:27:54;106.50;;;58.83;;
57663;SDS011;43493;53.098;6.064;2023-02-22T09:30:34;106.03;;;57.70;;
57663;SDS011;43493;53.098;6.064;2023-02-22T09:33:02;107.23;;;58.37;;
57663;SDS011;43493;53.098;6.064;2023-02-22T09:35:30;99.73;;;54.20;;
57663;SDS011;43493;53.098;6.064;2023-02-22T09:38:00;112.50;;;58.77;;
57663;SDS011;43493;53.098;6.064;2023-02-22T09:40:28;106.20;;;54.73;;
57663;SDS011;43493;53.098;6.064;2023-02-22T09:43:00;105.80;;;56.67;;
57663;SDS011;43493;53.098;6.064;2023-02-22T09:48:29;107.80;;;58.33;;
57663;SDS011;43493;53.098;6.064;2023-02-22T09:50:59;102.77;;;55.83;;
57663;SDS011;43493;53.098;6.064;2023-02-22T09:53:32;102.83;;;54.67;;
57663;SDS011;43493;53.098;6.064;2023-02-22T09:56:07;101.57;;;55.87;;
57663;SDS011;43493;53.098;6.064;2023-02-22T09:58:40;106.77;;;57.23;;
57663;SDS011;43493;53.098;6.064;2023-02-22T10:01:16;98.13;;;53.53;;
57663;SDS011;43493;53.098;6.064;2023-02-22T10:09:34;101.17;;;54.07;;
57663;SDS011;43493;53.098;6.064;2023-02-22T10:12:12;92.87;;;53.20;;
57663;SDS011;43493;53.098;6.064;2023-02-22T10:14:50;95.80;;;53.20;;
57663;SDS011;43493;53.098;6.064;2023-02-22T10:17:35;93.70;;;52.35;;
57663;SDS011;43493;53.098;6.064;2023-02-22T10:25:43;90.40;;;51.13;;
57663;SDS011;43493;53.098;6.064;2023-02-22T10:28:50;97.37;;;53.90;;
57663;SDS011;43493;53.098;6.064;2023-02-22T10:31:19;93.67;;;52.93;;
57663;SDS011;43493;53.098;6.064;2023-02-22T10:33:52;91.90;;;51.73;;
57663;SDS011;43493;53.098;6.064;2023-02-22T10:36:45;97.53;;;53.33;;
57663;SDS011;43493;53.098;6.064;2023-02-22T10:39:24;87.93;;;49.60;;
57663;SDS011;43493;53.098;6.064;2023-02-22T10:41:58;92.20;;;50.97;;
57663;SDS011;43493;53.098;6.064;2023-02-22T10:44:33;94.93;;;51.13;;
57663;SDS011;43493;53.098;6.064;2023-02-22T10:47:10;95.20;;;53.43;;
57663;SDS011;43493;53.098;6.064;2023-02-22T10:49:46;90.07;;;50.20;;
57663;SDS011;43493;53.098;6.064;2023-02-22T10:54:50;88.90;;;49.40;;
57663;SDS011;43493;53.098;6.064;2023-02-22T10:57:19;89.43;;;48.33;;
57663;SDS011;43493;53.098;6.064;2023-02-22T10:59:47;84.40;;;47.23;;
57663;SDS011;43493;53.098;6.064;2023-02-22T11:02:17;86.70;;;48.37;;
57663;SDS011;43493;53.098;6.064;2023-02-22T11:04:46;91.93;;;50.10;;
57663;SDS011;43493;53.098;6.064;2023-02-22T11:07:24;88.67;;;48.50;;
57663;SDS011;43493;53.098;6.064;2023-02-22T11:10:03;84.83;;;47.40;;
57663;SDS011;43493;53.098;6.064;2023-02-22T11:17:41;88.03;;;48.13;;
57663;SDS011;43493;53.098;6.064;2023-02-22T11:20:22;87.43;;;47.50;;
57663;SDS011;43493;53.098;6.064;2023-02-22T11:23:02;90.43;;;49.07;;
57663;SDS011;43493;53.098;6.064;2023-02-22T11:25:36;84.43;;;47.07;;
57663;SDS011;43493;53.098;6.064;2023-02-22T11:28:11;85.20;;;48.27;;
57663;SDS011;43493;53.098;6.064;2023-02-22T11:30:55;87.10;;;46.43;;
57663;SDS011;43493;53.098;6.064;2023-02-22T11:33:22;84.23;;;46.17;;
57663;SDS011;43493;53.098;6.064;2023-02-22T11:35:55;81.57;;;44.07;;
57663;SDS011;43493;53.098;6.064;2023-02-22T11:38:33;83.07;;;45.67;;
57663;SDS011;43493;53.098;6.064;2023-02-22T11:41:10;86.22;;;46.75;;
57663;SDS011;43493;53.098;6.064;2023-02-22T11:43:40;86.67;;;47.43;;
57663;SDS011;43493;53.098;6.064;2023-02-22T11:48:38;89.77;;;48.03;;
57663;SDS011;43493;53.098;6.064;2023-02-22T11:53:57;94.63;;;47.77;;
57663;SDS011;43493;53.098;6.064;2023-02-22T11:56:52;90.47;;;46.60;;
57663;SDS011;43493;53.098;6.064;2023-02-22T12:08:11;91.03;;;46.40;;
57663;SDS011;43493;53.098;6.064;2023-02-22T12:10:56;102.33;;;47.93;;
57663;SDS011;43493;53.098;6.064;2023-02-22T12:16:35;84.03;;;43.90;;
57663;SDS011;43493;53.098;6.064;2023-02-22T12:22:11;87.43;;;43.73;;
57663;SDS011;43493;53.098;6.064;2023-02-22T12:24:51;95.87;;;45.90;;
57663;SDS011;43493;53.098;6.064;2023-02-22T12:27:32;91.23;;;44.90;;
57663;SDS011;43493;53.098;6.064;2023-02-22T12:30:23;100.03;;;46.70;;
57663;SDS011;43493;53.098;6.064;2023-02-22T12:32:54;93.53;;;44.30;;
57663;SDS011;43493;53.098;6.064;2023-02-22T12:35:27;90.30;;;44.47;;
57663;SDS011;43493;53.098;6.064;2023-02-22T12:38:16;107.38;;;48.47;;
57663;SDS011;43493;53.098;6.064;2023-02-22T12:41:01;97.43;;;46.10;;
57663;SDS011;43493;53.098;6.064;2023-02-22T12:46:16;99.80;;;45.88;;
57663;SDS011;43493;53.098;6.064;2023-02-22T12:51:53;98.67;;;46.10;;
57663;SDS011;43493;53.098;6.064;2023-02-22T12:57:30;103.57;;;44.53;;
57663;SDS011;43493;53.098;6.064;2023-02-22T13:00:27;97.60;;;42.40;;
57663;SDS011;43493;53.098;6.064;2023-02-22T13:03:21;98.77;;;45.90;;
57663;SDS011;43493;53.098;6.064;2023-02-22T13:05:55;94.87;;;44.20;;
57663;SDS011;43493;53.098;6.064;2023-02-22T13:14:12;95.13;;;46.10;;
57663;SDS011;43493;53.098;6.064;2023-02-22T13:16:54;98.80;;;42.87;;
57663;SDS011;43493;53.098;6.064;2023-02-22T13:22:08;97.53;;;43.75;;
57663;SDS011;43493;53.098;6.064;2023-02-22T13:27:21;94.50;;;44.10;;
57663;SDS011;43493;53.098;6.064;2023-02-22T13:41:24;96.23;;;43.40;;
57663;SDS011;43493;53.098;6.064;2023-02-22T13:52:38;95.83;;;43.17;;
57663;SDS011;43493;53.098;6.064;2023-02-22T13:55:14;97.37;;;43.93;;
57663;SDS011;43493;53.098;6.064;2023-02-22T13:57:45;94.87;;;43.23;;
57663;SDS011;43493;53.098;6.064;2023-02-22T14:03:04;103.37;;;45.20;;
57663;SDS011;43493;53.098;6.064;2023-02-22T14:08:06;112.03;;;48.23;;
57663;SDS011;43493;53.098;6.064;2023-02-22T14:13:07;105.30;;;45.83;;
57663;SDS011;43493;53.098;6.064;2023-02-22T14:15:33;106.63;;;45.80;;
57663;SDS011;43493;53.098;6.064;2023-02-22T14:18:03;100.20;;;45.03;;
57663;SDS011;43493;53.098;6.064;2023-02-22T14:20:35;102.90;;;44.57;;
57663;SDS011;43493;53.098;6.064;2023-02-22T14:39:16;103.90;;;44.53;;
57663;SDS011;43493;53.098;6.064;2023-02-22T14:44:51;102.43;;;44.30;;
57663;SDS011;43493;53.098;6.064;2023-02-22T14:47:47;95.43;;;44.33;;
57663;SDS011;43493;53.098;6.064;2023-02-22T14:50:22;90.37;;;40.43;;
57663;SDS011;43493;53.098;6.064;2023-02-22T14:53:04;93.57;;;41.13;;
57663;SDS011;43493;53.098;6.064;2023-02-22T14:55:42;88.63;;;39.78;;
57663;SDS011;43493;53.098;6.064;2023-02-22T15:00:50;90.33;;;41.27;;
57663;SDS011;43493;53.098;6.064;2023-02-22T15:06:02;99.33;;;43.63;;
57663;SDS011;43493;53.098;6.064;2023-02-22T15:08:39;101.67;;;44.40;;
57663;SDS011;43493;53.098;6.064;2023-02-22T15:11:11;96.50;;;42.67;;
57663;SDS011;43493;53.098;6.064;2023-02-22T15:13:57;104.63;;;43.47;;
57663;SDS011;43493;53.098;6.064;2023-02-22T15:16:25;96.83;;;44.13;;
57663;SDS011;43493;53.098;6.064;2023-02-22T15:18:57;106.23;;;45.90;;
57663;SDS011;43493;53.098;6.064;2023-02-22T15:21:25;95.67;;;42.27;;
57663;SDS011;43493;53.098;6.064;2023-02-22T15:26:36;99.73;;;45.17;;
57663;SDS011;43493;53.098;6.064;2023-02-22T15:29:08;104.10;;;46.17;;
57663;SDS011;43493;53.098;6.064;2023-02-22T15:31:49;107.37;;;45.57;;
57663;SDS011;43493;53.098;6.064;2023-02-22T15:34:25;109.73;;;45.37;;
57663;SDS011;43493;53.098;6.064;2023-02-22T15:36:53;97.10;;;43.13;;
57663;SDS011;43493;53.098;6.064;2023-02-22T15:39:25;107.03;;;46.23;;
57663;SDS011;43493;53.098;6.064;2023-02-22T15:44:46;102.90;;;43.97;;
57663;SDS011;43493;53.098;6.064;2023-02-22T15:47:16;99.63;;;43.63;;
57663;SDS011;43493;53.098;6.064;2023-02-22T15:49:44;93.20;;;41.03;;
57663;SDS011;43493;53.098;6.064;2023-02-22T15:52:32;85.67;;;41.03;;
57663;SDS011;43493;53.098;6.064;2023-02-22T15:54:57;86.20;;;38.80;;
57663;SDS011;43493;53.098;6.064;2023-02-22T15:57:23;87.20;;;39.53;;
57663;SDS011;43493;53.098;6.064;2023-02-22T15:59:52;90.13;;;41.57;;
57663;SDS011;43493;53.098;6.064;2023-02-22T16:05:03;87.93;;;41.43;;
57663;SDS011;43493;53.098;6.064;2023-02-22T16:07:32;83.47;;;41.90;;
57663;SDS011;43493;53.098;6.064;2023-02-22T16:10:00;82.80;;;38.60;;
57663;SDS011;43493;53.098;6.064;2023-02-22T16:12:33;79.13;;;37.63;;
57663;SDS011;43493;53.098;6.064;2023-02-22T16:14:59;90.70;;;39.93;;
57663;SDS011;43493;53.098;6.064;2023-02-22T16:17:38;76.17;;;36.90;;
57663;SDS011;43493;53.098;6.064;2023-02-22T16:22:43;86.53;;;41.70;;
57663;SDS011;43493;53.098;6.064;2023-02-22T16:27:55;66.40;;;35.33;;
57663;SDS011;43493;53.098;6.064;2023-02-22T16:30:30;71.50;;;35.30;;
57663;SDS011;43493;53.098;6.064;2023-02-22T16:33:08;77.77;;;37.33;;
57663;SDS011;43493;53.098;6.064;2023-02-22T16:35:40;71.37;;;36.30;;
57663;SDS011;43493;53.098;6.064;2023-02-22T16:40:54;69.60;;;36.30;;
57663;SDS011;43493;53.098;6.064;2023-02-22T16:43:26;76.60;;;36.73;;
57663;SDS011;43493;53.098;6.064;2023-02-22T16:45:55;68.57;;;35.93;;
57663;SDS011;43493;53.098;6.064;2023-02-22T16:48:22;71.17;;;36.30;;
57663;SDS011;43493;53.098;6.064;2023-02-22T16:50:50;73.67;;;37.07;;
57663;SDS011;43493;53.098;6.064;2023-02-22T16:53:18;72.87;;;37.63;;
57663;SDS011;43493;53.098;6.064;2023-02-22T16:55:47;74.57;;;37.90;;
57663;SDS011;43493;53.098;6.064;2023-02-22T16:58:13;74.03;;;41.57;;
57663;SDS011;43493;53.098;6.064;2023-02-22T17:00:41;77.97;;;44.57;;
57663;SDS011;43493;53.098;6.064;2023-02-22T17:03:09;87.23;;;49.40;;
57663;SDS011;43493;53.098;6.064;2023-02-22T17:05:40;84.40;;;47.67;;
57663;SDS011;43493;53.098;6.064;2023-02-22T17:08:05;79.03;;;41.20;;
57663;SDS011;43493;53.098;6.064;2023-02-22T17:10:32;77.83;;;39.77;;
57663;SDS011;43493;53.098;6.064;2023-02-22T17:12:58;70.73;;;36.53;;
57663;SDS011;43493;53.098;6.064;2023-02-22T17:15:25;67.60;;;36.00;;
57663;SDS011;43493;53.098;6.064;2023-02-22T17:18:03;72.73;;;37.43;;
57663;SDS011;43493;53.098;6.064;2023-02-22T17:20:46;69.47;;;35.10;;
57663;SDS011;43493;53.098;6.064;2023-02-22T17:23:13;68.13;;;36.33;;
57663;SDS011;43493;53.098;6.064;2023-02-22T17:25:40;73.70;;;38.77;;